sensor_id;sensor_type;location;lat;lon;timestamp;P1;durP1;ratioP1;P2;durP2;ratioP2
64291;SDS011;50628;51.008;13.658;2023-06-22T00:01:26;8.05;;;7.35;;
64291;SDS011;50628;51.008;13.658;2023-06-22T00:06:28;8.48;;;7.63;;
64291;SDS011;50628;51.008;13.658;2023-06-22T00:11:29;10.80;;;7.57;;
64291;SDS011;50628;51.008;13.658;2023-06-22T00:16:35;8.38;;;7.57;;
64291;SDS011;50628;51.008;13.658;2023-06-22T00:21:36;11.65;;;7.97;;
64291;SDS011;50628;51.008;13.658;2023-06-22T00:26:39;9.05;;;8.00;;
64291;SDS011;50628;51.008;13.658;2023-06-22T00:31:45;8.88;;;7.97;;
64291;SDS011;50628;51.008;13.658;2023-06-22T00:36:47;8.05;;;7.05;;
64291;SDS011;50628;51.008;13.658;2023-06-22T00:41:49;8.32;;;7.40;;
64291;SDS011;50628;51.008;13.658;2023-06-22T00:46:52;8.52;;;7.55;;
64291;SDS011;50628;51.008;13.658;2023-06-22T00:51:54;9.48;;;7.93;;
64291;SDS011;50628;51.008;13.658;2023-06-22T00:56:57;8.70;;;7.80;;
64291;SDS011;50628;51.008;13.658;2023-06-22T01:02:01;9.05;;;8.18;;
64291;SDS011;50628;51.008;13.658;2023-06-22T01:07:05;8.23;;;7.50;;
64291;SDS011;50628;51.008;13.658;2023-06-22T01:12:16;8.90;;;8.10;;
64291;SDS011;50628;51.008;13.658;2023-06-22T01:17:22;9.15;;;8.30;;
64291;SDS011;50628;51.008;13.658;2023-06-22T01:22:28;9.82;;;8.38;;
64291;SDS011;50628;51.008;13.658;2023-06-22T01:27:36;8.65;;;7.80;;
64291;SDS011;50628;51.008;13.658;2023-06-22T01:32:50;8.57;;;7.78;;
64291;SDS011;50628;51.008;13.658;2023-06-22T01:37:54;15.93;;;8.55;;
64291;SDS011;50628;51.008;13.658;2023-06-22T01:42:56;8.75;;;8.00;;
64291;SDS011;50628;51.008;13.658;2023-06-22T01:48:00;8.75;;;7.85;;
64291;SDS011;50628;51.008;13.658;2023-06-22T01:53:03;9.68;;;8.15;;
64291;SDS011;50628;51.008;13.658;2023-06-22T01:58:07;9.40;;;7.93;;
64291;SDS011;50628;51.008;13.658;2023-06-22T02:03:11;8.40;;;7.60;;
64291;SDS011;50628;51.008;13.658;2023-06-22T02:08:19;10.35;;;9.27;;
64291;SDS011;50628;51.008;13.658;2023-06-22T02:13:23;13.43;;;9.02;;
64291;SDS011;50628;51.008;13.658;2023-06-22T02:18:27;9.00;;;8.15;;
64291;SDS011;50628;51.008;13.658;2023-06-22T02:23:29;9.45;;;8.55;;
64291;SDS011;50628;51.008;13.658;2023-06-22T02:28:35;10.25;;;8.05;;
64291;SDS011;50628;51.008;13.658;2023-06-22T02:33:39;8.85;;;7.93;;
64291;SDS011;50628;51.008;13.658;2023-06-22T02:38:41;10.10;;;8.00;;
64291;SDS011;50628;51.008;13.658;2023-06-22T02:43:47;8.93;;;8.13;;
64291;SDS011;50628;51.008;13.658;2023-06-22T02:48:50;9.77;;;8.35;;
64291;SDS011;50628;51.008;13.658;2023-06-22T02:53:52;10.73;;;9.63;;
64291;SDS011;50628;51.008;13.658;2023-06-22T02:58:58;9.52;;;8.52;;
64291;SDS011;50628;51.008;13.658;2023-06-22T03:04:06;13.13;;;8.77;;
64291;SDS011;50628;51.008;13.658;2023-06-22T03:09:09;9.90;;;8.88;;
64291;SDS011;50628;51.008;13.658;2023-06-22T03:14:11;16.02;;;9.82;;
64291;SDS011;50628;51.008;13.658;2023-06-22T03:19:15;10.73;;;9.60;;
64291;SDS011;50628;51.008;13.658;2023-06-22T03:24:17;13.02;;;9.27;;
64291;SDS011;50628;51.008;13.658;2023-06-22T03:29:18;10.43;;;8.90;;
64291;SDS011;50628;51.008;13.658;2023-06-22T03:34:22;19.13;;;10.20;;
64291;SDS011;50628;51.008;13.658;2023-06-22T03:39:26;12.85;;;10.18;;
64291;SDS011;50628;51.008;13.658;2023-06-22T03:44:28;10.80;;;9.35;;
64291;SDS011;50628;51.008;13.658;2023-06-22T03:49:32;12.50;;;9.55;;
64291;SDS011;50628;51.008;13.658;2023-06-22T03:54:33;11.43;;;9.85;;
64291;SDS011;50628;51.008;13.658;2023-06-22T03:59:35;10.10;;;8.93;;
64291;SDS011;50628;51.008;13.658;2023-06-22T04:04:39;13.25;;;10.00;;
64291;SDS011;50628;51.008;13.658;2023-06-22T04:09:40;9.88;;;8.88;;
64291;SDS011;50628;51.008;13.658;2023-06-22T04:14:42;12.90;;;8.95;;
64291;SDS011;50628;51.008;13.658;2023-06-22T04:19:46;13.50;;;9.93;;
64291;SDS011;50628;51.008;13.658;2023-06-22T04:24:47;11.82;;;9.90;;
64291;SDS011;50628;51.008;13.658;2023-06-22T04:29:53;10.60;;;8.38;;
64291;SDS011;50628;51.008;13.658;2023-06-22T04:34:56;11.27;;;9.45;;
64291;SDS011;50628;51.008;13.658;2023-06-22T04:39:58;14.32;;;10.50;;
64291;SDS011;50628;51.008;13.658;2023-06-22T04:44:59;17.63;;;9.52;;
64291;SDS011;50628;51.008;13.658;2023-06-22T04:50:03;10.13;;;8.68;;
64291;SDS011;50628;51.008;13.658;2023-06-22T04:55:06;10.18;;;8.80;;
64291;SDS011;50628;51.008;13.658;2023-06-22T05:00:09;9.98;;;8.93;;
64291;SDS011;50628;51.008;13.658;2023-06-22T05:05:18;11.43;;;8.82;;
64291;SDS011;50628;51.008;13.658;2023-06-22T05:10:20;11.32;;;8.50;;
64291;SDS011;50628;51.008;13.658;2023-06-22T05:15:22;13.50;;;10.35;;
64291;SDS011;50628;51.008;13.658;2023-06-22T05:20:29;20.58;;;10.10;;
64291;SDS011;50628;51.008;13.658;2023-06-22T05:25:31;9.95;;;8.20;;
64291;SDS011;50628;51.008;13.658;2023-06-22T05:30:33;12.93;;;9.80;;
64291;SDS011;50628;51.008;13.658;2023-06-22T05:35:37;15.20;;;10.40;;
64291;SDS011;50628;51.008;13.658;2023-06-22T05:40:39;14.18;;;10.35;;
64291;SDS011;50628;51.008;13.658;2023-06-22T05:45:41;11.20;;;9.32;;
64291;SDS011;50628;51.008;13.658;2023-06-22T05:50:44;8.52;;;7.72;;
64291;SDS011;50628;51.008;13.658;2023-06-22T05:55:46;9.30;;;7.78;;
64291;SDS011;50628;51.008;13.658;2023-06-22T06:00:48;13.07;;;9.10;;
64291;SDS011;50628;51.008;13.658;2023-06-22T06:05:51;14.93;;;9.27;;
64291;SDS011;50628;51.008;13.658;2023-06-22T06:10:53;16.02;;;9.80;;
64291;SDS011;50628;51.008;13.658;2023-06-22T06:15:56;10.95;;;9.57;;
64291;SDS011;50628;51.008;13.658;2023-06-22T06:21:00;15.25;;;10.02;;
64291;SDS011;50628;51.008;13.658;2023-06-22T06:26:02;18.05;;;9.70;;
64291;SDS011;50628;51.008;13.658;2023-06-22T06:31:07;11.57;;;9.00;;
64291;SDS011;50628;51.008;13.658;2023-06-22T06:36:10;10.85;;;8.57;;
64291;SDS011;50628;51.008;13.658;2023-06-22T06:41:12;11.52;;;9.18;;
64291;SDS011;50628;51.008;13.658;2023-06-22T06:46:14;11.07;;;9.15;;
64291;SDS011;50628;51.008;13.658;2023-06-22T06:51:20;10.85;;;7.85;;
64291;SDS011;50628;51.008;13.658;2023-06-22T06:56:22;10.10;;;7.57;;
64291;SDS011;50628;51.008;13.658;2023-06-22T07:01:24;13.07;;;7.95;;
64291;SDS011;50628;51.008;13.658;2023-06-22T07:06:27;19.92;;;9.15;;
64291;SDS011;50628;51.008;13.658;2023-06-22T07:11:32;9.55;;;7.05;;
64291;SDS011;50628;51.008;13.658;2023-06-22T07:16:35;10.07;;;7.78;;
64291;SDS011;50628;51.008;13.658;2023-06-22T07:21:38;10.50;;;7.97;;
64291;SDS011;50628;51.008;13.658;2023-06-22T07:26:40;14.90;;;7.25;;
64291;SDS011;50628;51.008;13.658;2023-06-22T07:31:46;8.90;;;7.43;;
64291;SDS011;50628;51.008;13.658;2023-06-22T07:36:51;9.10;;;7.30;;
64291;SDS011;50628;51.008;13.658;2023-06-22T07:41:53;9.10;;;8.23;;
64291;SDS011;50628;51.008;13.658;2023-06-22T07:46:55;12.18;;;8.10;;
64291;SDS011;50628;51.008;13.658;2023-06-22T07:51:58;8.88;;;6.97;;
64291;SDS011;50628;51.008;13.658;2023-06-22T07:57:01;11.18;;;7.57;;
64291;SDS011;50628;51.008;13.658;2023-06-22T08:02:05;16.30;;;8.23;;
64291;SDS011;50628;51.008;13.658;2023-06-22T08:07:10;13.80;;;8.52;;
64291;SDS011;50628;51.008;13.658;2023-06-22T08:12:12;30.73;;;9.32;;
64291;SDS011;50628;51.008;13.658;2023-06-22T08:17:14;9.65;;;8.10;;
64291;SDS011;50628;51.008;13.658;2023-06-22T08:22:17;15.38;;;8.93;;
64291;SDS011;50628;51.008;13.658;2023-06-22T08:27:19;18.83;;;8.73;;
64291;SDS011;50628;51.008;13.658;2023-06-22T08:32:23;8.50;;;7.65;;
64291;SDS011;50628;51.008;13.658;2023-06-22T08:37:28;8.50;;;6.93;;
64291;SDS011;50628;51.008;13.658;2023-06-22T08:42:32;11.43;;;6.47;;
64291;SDS011;50628;51.008;13.658;2023-06-22T08:47:34;8.05;;;7.35;;
64291;SDS011;50628;51.008;13.658;2023-06-22T08:52:38;9.60;;;7.30;;
64291;SDS011;50628;51.008;13.658;2023-06-22T08:57:41;8.65;;;6.50;;
64291;SDS011;50628;51.008;13.658;2023-06-22T09:02:44;8.18;;;7.38;;
64291;SDS011;50628;51.008;13.658;2023-06-22T09:07:47;10.98;;;7.18;;
64291;SDS011;50628;51.008;13.658;2023-06-22T09:12:49;10.15;;;6.88;;
64291;SDS011;50628;51.008;13.658;2023-06-22T09:17:51;7.78;;;6.70;;
64291;SDS011;50628;51.008;13.658;2023-06-22T09:22:56;10.93;;;7.07;;
64291;SDS011;50628;51.008;13.658;2023-06-22T09:27:58;7.93;;;7.18;;
64291;SDS011;50628;51.008;13.658;2023-06-22T09:33:00;9.85;;;7.57;;
64291;SDS011;50628;51.008;13.658;2023-06-22T09:38:03;9.32;;;7.20;;
64291;SDS011;50628;51.008;13.658;2023-06-22T09:43:05;9.32;;;6.43;;
64291;SDS011;50628;51.008;13.658;2023-06-22T09:48:07;9.77;;;6.68;;
64291;SDS011;50628;51.008;13.658;2023-06-22T09:53:11;7.97;;;6.22;;
64291;SDS011;50628;51.008;13.658;2023-06-22T09:58:13;10.52;;;6.80;;
64291;SDS011;50628;51.008;13.658;2023-06-22T10:03:15;7.63;;;5.95;;
64291;SDS011;50628;51.008;13.658;2023-06-22T10:08:19;8.50;;;6.70;;
64291;SDS011;50628;51.008;13.658;2023-06-22T10:13:21;12.43;;;7.22;;
64291;SDS011;50628;51.008;13.658;2023-06-22T10:18:22;7.90;;;7.10;;
64291;SDS011;50628;51.008;13.658;2023-06-22T10:23:26;8.23;;;6.82;;
64291;SDS011;50628;51.008;13.658;2023-06-22T10:28:27;6.72;;;6.13;;
64291;SDS011;50628;51.008;13.658;2023-06-22T10:33:29;7.22;;;6.55;;
64291;SDS011;50628;51.008;13.658;2023-06-22T10:38:32;7.25;;;6.60;;
64291;SDS011;50628;51.008;13.658;2023-06-22T10:43:34;10.13;;;5.97;;
64291;SDS011;50628;51.008;13.658;2023-06-22T10:48:36;13.15;;;7.70;;
64291;SDS011;50628;51.008;13.658;2023-06-22T10:53:40;7.03;;;6.43;;
64291;SDS011;50628;51.008;13.658;2023-06-22T10:58:41;7.85;;;6.53;;
64291;SDS011;50628;51.008;13.658;2023-06-22T11:03:44;11.63;;;6.03;;
64291;SDS011;50628;51.008;13.658;2023-06-22T11:08:47;6.65;;;6.03;;
64291;SDS011;50628;51.008;13.658;2023-06-22T11:13:49;8.77;;;7.35;;
64291;SDS011;50628;51.008;13.658;2023-06-22T11:18:51;25.13;;;8.25;;
64291;SDS011;50628;51.008;13.658;2023-06-22T11:23:54;8.02;;;5.90;;
64291;SDS011;50628;51.008;13.658;2023-06-22T11:28:56;6.93;;;6.22;;
64291;SDS011;50628;51.008;13.658;2023-06-22T11:33:58;6.32;;;5.75;;
64291;SDS011;50628;51.008;13.658;2023-06-22T11:39:01;11.10;;;6.40;;
64291;SDS011;50628;51.008;13.658;2023-06-22T11:44:05;7.43;;;6.05;;
64291;SDS011;50628;51.008;13.658;2023-06-22T11:49:07;8.48;;;7.15;;
64291;SDS011;50628;51.008;13.658;2023-06-22T11:54:10;11.70;;;6.28;;
64291;SDS011;50628;51.008;13.658;2023-06-22T11:59:12;10.05;;;6.13;;
64291;SDS011;50628;51.008;13.658;2023-06-22T12:04:14;6.47;;;5.88;;
64291;SDS011;50628;51.008;13.658;2023-06-22T12:09:18;6.28;;;5.78;;
64291;SDS011;50628;51.008;13.658;2023-06-22T12:14:21;9.13;;;5.97;;
64291;SDS011;50628;51.008;13.658;2023-06-22T12:19:23;14.57;;;6.25;;
64291;SDS011;50628;51.008;13.658;2023-06-22T12:24:26;6.63;;;5.75;;
64291;SDS011;50628;51.008;13.658;2023-06-22T12:29:29;7.75;;;6.10;;
64291;SDS011;50628;51.008;13.658;2023-06-22T12:34:31;8.77;;;6.13;;
64291;SDS011;50628;51.008;13.658;2023-06-22T12:39:34;6.88;;;6.13;;
64291;SDS011;50628;51.008;13.658;2023-06-22T12:44:37;8.05;;;5.55;;
64291;SDS011;50628;51.008;13.658;2023-06-22T12:49:39;7.10;;;5.65;;
64291;SDS011;50628;51.008;13.658;2023-06-22T12:54:42;7.00;;;5.68;;
64291;SDS011;50628;51.008;13.658;2023-06-22T12:59:44;8.43;;;5.93;;
64291;SDS011;50628;51.008;13.658;2023-06-22T13:04:46;5.85;;;5.30;;
64291;SDS011;50628;51.008;13.658;2023-06-22T13:09:49;6.80;;;6.15;;
64291;SDS011;50628;51.008;13.658;2023-06-22T13:14:52;6.72;;;5.57;;
64291;SDS011;50628;51.008;13.658;2023-06-22T13:19:54;6.65;;;5.05;;
64291;SDS011;50628;51.008;13.658;2023-06-22T13:24:57;6.88;;;6.03;;
64291;SDS011;50628;51.008;13.658;2023-06-22T13:29:59;10.07;;;7.03;;
64291;SDS011;50628;51.008;13.658;2023-06-22T13:35:03;8.05;;;6.00;;
64291;SDS011;50628;51.008;13.658;2023-06-22T13:40:07;5.88;;;5.38;;
64291;SDS011;50628;51.008;13.658;2023-06-22T13:45:10;8.02;;;5.70;;
64291;SDS011;50628;51.008;13.658;2023-06-22T13:50:12;6.68;;;5.97;;
64291;SDS011;50628;51.008;13.658;2023-06-22T13:55:15;7.03;;;5.38;;
64291;SDS011;50628;51.008;13.658;2023-06-22T14:00:17;7.10;;;5.55;;
64291;SDS011;50628;51.008;13.658;2023-06-22T14:05:20;7.85;;;5.38;;
64291;SDS011;50628;51.008;13.658;2023-06-22T14:10:23;10.85;;;9.73;;
64291;SDS011;50628;51.008;13.658;2023-06-22T14:15:25;9.63;;;5.88;;
64291;SDS011;50628;51.008;13.658;2023-06-22T14:20:27;10.20;;;6.32;;
64291;SDS011;50628;51.008;13.658;2023-06-22T14:25:30;6.90;;;5.55;;
64291;SDS011;50628;51.008;13.658;2023-06-22T14:30:32;11.77;;;7.22;;
64291;SDS011;50628;51.008;13.658;2023-06-22T14:35:34;10.52;;;5.93;;
64291;SDS011;50628;51.008;13.658;2023-06-22T14:40:37;6.22;;;5.32;;
64291;SDS011;50628;51.008;13.658;2023-06-22T14:45:40;6.35;;;5.78;;
64291;SDS011;50628;51.008;13.658;2023-06-22T14:50:42;6.00;;;5.38;;
64291;SDS011;50628;51.008;13.658;2023-06-22T14:55:45;7.65;;;6.35;;
64291;SDS011;50628;51.008;13.658;2023-06-22T15:00:47;7.28;;;5.22;;
64291;SDS011;50628;51.008;13.658;2023-06-22T15:05:50;6.13;;;5.50;;
64291;SDS011;50628;51.008;13.658;2023-06-22T15:10:53;5.38;;;4.90;;
64291;SDS011;50628;51.008;13.658;2023-06-22T15:15:55;9.27;;;4.95;;
64291;SDS011;50628;51.008;13.658;2023-06-22T15:20:57;5.90;;;4.68;;
64291;SDS011;50628;51.008;13.658;2023-06-22T15:26:03;12.02;;;5.82;;
64291;SDS011;50628;51.008;13.658;2023-06-22T15:31:06;5.93;;;5.30;;
64291;SDS011;50628;51.008;13.658;2023-06-22T15:36:08;7.68;;;5.50;;
64291;SDS011;50628;51.008;13.658;2023-06-22T15:41:11;7.25;;;5.53;;
64291;SDS011;50628;51.008;13.658;2023-06-22T15:46:13;7.95;;;6.03;;
64291;SDS011;50628;51.008;13.658;2023-06-22T15:51:17;12.25;;;5.57;;
64291;SDS011;50628;51.008;13.658;2023-06-22T15:56:20;7.20;;;6.15;;
64291;SDS011;50628;51.008;13.658;2023-06-22T16:01:23;6.18;;;5.68;;
64291;SDS011;50628;51.008;13.658;2023-06-22T16:06:25;10.10;;;6.30;;
64291;SDS011;50628;51.008;13.658;2023-06-22T16:11:29;10.20;;;6.45;;
64291;SDS011;50628;51.008;13.658;2023-06-22T16:16:31;6.10;;;5.53;;
64291;SDS011;50628;51.008;13.658;2023-06-22T16:21:32;7.57;;;6.20;;
64291;SDS011;50628;51.008;13.658;2023-06-22T16:26:39;7.05;;;5.95;;
64291;SDS011;50628;51.008;13.658;2023-06-22T16:31:41;7.07;;;6.38;;
64291;SDS011;50628;51.008;13.658;2023-06-22T16:36:43;10.45;;;6.78;;
64291;SDS011;50628;51.008;13.658;2023-06-22T16:41:47;8.13;;;6.97;;
64291;SDS011;50628;51.008;13.658;2023-06-22T16:46:50;6.65;;;6.05;;
64291;SDS011;50628;51.008;13.658;2023-06-22T16:51:51;7.63;;;6.40;;
64291;SDS011;50628;51.008;13.658;2023-06-22T16:56:55;8.30;;;7.40;;
64291;SDS011;50628;51.008;13.658;2023-06-22T17:02:00;12.00;;;7.40;;
64291;SDS011;50628;51.008;13.658;2023-06-22T17:07:04;9.35;;;7.28;;
64291;SDS011;50628;51.008;13.658;2023-06-22T17:12:12;10.70;;;8.73;;
64291;SDS011;50628;51.008;13.658;2023-06-22T17:17:15;11.00;;;7.07;;
64291;SDS011;50628;51.008;13.658;2023-06-22T17:22:18;7.93;;;7.03;;
64291;SDS011;50628;51.008;13.658;2023-06-22T17:27:28;9.65;;;7.65;;
64291;SDS011;50628;51.008;13.658;2023-06-22T17:32:30;7.93;;;7.15;;
64291;SDS011;50628;51.008;13.658;2023-06-22T17:37:32;10.88;;;7.43;;
64291;SDS011;50628;51.008;13.658;2023-06-22T17:42:48;12.18;;;7.68;;
64291;SDS011;50628;51.008;13.658;2023-06-22T17:47:51;9.32;;;7.70;;
64291;SDS011;50628;51.008;13.658;2023-06-22T17:52:54;11.85;;;7.43;;
64291;SDS011;50628;51.008;13.658;2023-06-22T17:57:58;11.70;;;8.00;;
64291;SDS011;50628;51.008;13.658;2023-06-22T18:03:00;16.20;;;8.27;;
64291;SDS011;50628;51.008;13.658;2023-06-22T18:08:03;9.35;;;7.47;;
64291;SDS011;50628;51.008;13.658;2023-06-22T18:13:07;12.07;;;7.43;;
64291;SDS011;50628;51.008;13.658;2023-06-22T18:18:09;9.07;;;8.18;;
64291;SDS011;50628;51.008;13.658;2023-06-22T18:23:11;11.63;;;8.52;;
64291;SDS011;50628;51.008;13.658;2023-06-22T18:28:15;10.90;;;7.80;;
64291;SDS011;50628;51.008;13.658;2023-06-22T18:33:19;8.77;;;7.78;;
64291;SDS011;50628;51.008;13.658;2023-06-22T18:38:21;12.10;;;7.82;;
64291;SDS011;50628;51.008;13.658;2023-06-22T18:43:25;9.25;;;8.10;;
64291;SDS011;50628;51.008;13.658;2023-06-22T18:48:27;19.17;;;9.55;;
64291;SDS011;50628;51.008;13.658;2023-06-22T18:53:29;11.32;;;7.95;;
64291;SDS011;50628;51.008;13.658;2023-06-22T18:58:32;11.15;;;10.05;;
64291;SDS011;50628;51.008;13.658;2023-06-22T19:03:34;11.52;;;8.52;;
64291;SDS011;50628;51.008;13.658;2023-06-22T19:14:20;13.88;;;9.45;;
64291;SDS011;50628;51.008;13.658;2023-06-22T19:19:23;14.15;;;9.85;;
64291;SDS011;50628;51.008;13.658;2023-06-22T19:24:28;11.43;;;9.73;;
64291;SDS011;50628;51.008;13.658;2023-06-22T19:29:33;12.25;;;9.68;;
64291;SDS011;50628;51.008;13.658;2023-06-22T19:34:36;13.48;;;10.40;;
64291;SDS011;50628;51.008;13.658;2023-06-22T19:39:45;12.13;;;10.48;;
64291;SDS011;50628;51.008;13.658;2023-06-22T19:44:49;11.27;;;10.10;;
64291;SDS011;50628;51.008;13.658;2023-06-22T19:49:57;14.18;;;10.90;;
64291;SDS011;50628;51.008;13.658;2023-06-22T19:54:59;11.43;;;10.02;;
64291;SDS011;50628;51.008;13.658;2023-06-22T20:00:06;11.43;;;9.75;;
64291;SDS011;50628;51.008;13.658;2023-06-22T20:05:13;15.68;;;12.15;;
64291;SDS011;50628;51.008;13.658;2023-06-22T20:10:16;13.93;;;9.25;;
64291;SDS011;50628;51.008;13.658;2023-06-22T20:15:22;19.17;;;14.60;;
64291;SDS011;50628;51.008;13.658;2023-06-22T20:20:26;15.50;;;10.10;;
64291;SDS011;50628;51.008;13.658;2023-06-22T20:25:29;11.32;;;10.10;;
64291;SDS011;50628;51.008;13.658;2023-06-22T20:30:34;16.17;;;10.30;;
64291;SDS011;50628;51.008;13.658;2023-06-22T20:35:36;13.20;;;10.18;;
64291;SDS011;50628;51.008;13.658;2023-06-22T20:40:38;11.52;;;10.27;;
64291;SDS011;50628;51.008;13.658;2023-06-22T20:45:41;11.02;;;9.82;;
64291;SDS011;50628;51.008;13.658;2023-06-22T20:50:43;29.55;;;12.15;;
64291;SDS011;50628;51.008;13.658;2023-06-22T20:55:45;11.50;;;9.43;;
64291;SDS011;50628;51.008;13.658;2023-06-22T21:00:49;12.57;;;9.65;;
64291;SDS011;50628;51.008;13.658;2023-06-22T21:05:51;11.43;;;10.20;;
64291;SDS011;50628;51.008;13.658;2023-06-22T21:10:52;15.40;;;10.88;;
64291;SDS011;50628;51.008;13.658;2023-06-22T21:15:56;10.90;;;9.80;;
64291;SDS011;50628;51.008;13.658;2023-06-22T21:20:58;12.82;;;10.57;;
64291;SDS011;50628;51.008;13.658;2023-06-22T21:26:00;11.55;;;10.35;;
64291;SDS011;50628;51.008;13.658;2023-06-22T21:31:03;14.77;;;11.20;;
64291;SDS011;50628;51.008;13.658;2023-06-22T21:36:05;13.45;;;11.55;;
64291;SDS011;50628;51.008;13.658;2023-06-22T21:41:08;12.63;;;11.43;;
64291;SDS011;50628;51.008;13.658;2023-06-22T21:46:11;12.50;;;11.20;;
64291;SDS011;50628;51.008;13.658;2023-06-22T21:51:13;14.63;;;12.32;;
64291;SDS011;50628;51.008;13.658;2023-06-22T21:56:14;20.83;;;12.35;;
64291;SDS011;50628;51.008;13.658;2023-06-22T22:01:18;12.95;;;11.73;;
64291;SDS011;50628;51.008;13.658;2023-06-22T22:06:19;13.45;;;12.18;;
64291;SDS011;50628;51.008;13.658;2023-06-22T22:11:23;14.68;;;12.65;;
64291;SDS011;50628;51.008;13.658;2023-06-22T22:16:27;20.25;;;14.13;;
64291;SDS011;50628;51.008;13.658;2023-06-22T22:21:29;15.38;;;13.77;;
64291;SDS011;50628;51.008;13.658;2023-06-22T22:26:31;18.10;;;13.23;;
64291;SDS011;50628;51.008;13.658;2023-06-22T22:31:37;20.17;;;15.98;;
64291;SDS011;50628;51.008;13.658;2023-06-22T22:36:39;17.10;;;13.88;;
64291;SDS011;50628;51.008;13.658;2023-06-22T22:41:41;20.23;;;17.00;;
64291;SDS011;50628;51.008;13.658;2023-06-22T22:46:44;25.65;;;18.27;;
64291;SDS011;50628;51.008;13.658;2023-06-22T22:51:46;15.52;;;13.65;;
64291;SDS011;50628;51.008;13.658;2023-06-22T22:56:48;20.85;;;15.85;;
64291;SDS011;50628;51.008;13.658;2023-06-22T23:01:52;24.38;;;11.23;;
64291;SDS011;50628;51.008;13.658;2023-06-22T23:06:54;15.98;;;7.35;;
64291;SDS011;50628;51.008;13.658;2023-06-22T23:11:56;11.18;;;4.00;;
64291;SDS011;50628;51.008;13.658;2023-06-22T23:16:59;8.80;;;2.55;;
64291;SDS011;50628;51.008;13.658;2023-06-22T23:22:01;20.70;;;8.75;;
64291;SDS011;50628;51.008;13.658;2023-06-22T23:27:04;4.18;;;1.65;;
64291;SDS011;50628;51.008;13.658;2023-06-22T23:32:09;4.63;;;1.70;;
64291;SDS011;50628;51.008;13.658;2023-06-22T23:37:11;7.00;;;1.92;;
64291;SDS011;50628;51.008;13.658;2023-06-22T23:42:13;3.17;;;1.70;;
64291;SDS011;50628;51.008;13.658;2023-06-22T23:47:17;2.17;;;1.45;;
64291;SDS011;50628;51.008;13.658;2023-06-22T23:52:19;3.25;;;1.77;;
64291;SDS011;50628;51.008;13.658;2023-06-22T23:57:20;2.50;;;1.63;;
